Time;durP1;ratioP1;P1;durP2;ratioP2;P2;SDS_P1;SDS_P2;PMS_P1;PMS_P2;Temp;Humidity;BMP_temperature;BMP_pressure;BME280_temperature;BME280_humidity;BME280_pressure;Samples;Min_cycle;Max_cycle;Signal;HPM_P1;HPM_P2
2022/01/07 00:00:12;;;;;;;13.75;8.20;;;;;;;1.89;79.86;98934.53;5011713;28;20109;-62
2022/01/07 00:02:38;;;;;;;12.63;7.47;;;;;;;1.59;79.33;98882.31;5021078;28;20045;-62
2022/01/07 00:05:04;;;;;;;13.88;7.47;;;;;;;1.85;79.71;98937.34;5016671;28;20504;-62
2022/01/07 00:07:29;;;;;;;13.10;7.78;;;;;;;1.76;79.54;98945.53;5028030;28;20479;-62
2022/01/07 00:09:54;;;;;;;12.38;7.32;;;;;;;1.64;80.13;98917.06;4997632;28;20261;-63
2022/01/07 00:12:22;;;;;;;10.98;6.72;;;;;;;1.81;80.42;98934.13;5018525;28;20056;-61
2022/01/07 00:14:48;;;;;;;12.63;6.82;;;;;;;1.80;80.31;98916.25;5016780;28;20029;-63
2022/01/07 00:17:13;;;;;;;12.50;7.15;;;;;;;1.86;81.04;98927.03;5018328;28;20039;-62
2022/01/07 00:19:39;;;;;;;11.50;6.80;;;;;;;1.84;79.80;98920.31;5019970;28;20038;-63
2022/01/07 00:22:04;;;;;;;11.50;6.72;;;;;;;1.68;79.65;98915.16;5012370;28;20038;-62
2022/01/07 00:24:30;;;;;;;11.93;6.38;;;;;;;1.68;79.54;98917.72;5005463;28;20042;-62
2022/01/07 00:26:55;;;;;;;11.70;6.40;;;;;;;1.85;78.62;98927.91;5015703;28;20387;-62
2022/01/07 00:29:20;;;;;;;11.10;6.20;;;;;;;1.89;79.49;98931.97;5019227;28;20555;-62
2022/01/07 00:31:46;;;;;;;12.13;6.75;;;;;;;1.86;79.25;98928.72;5033648;28;20084;-62
2022/01/07 00:34:11;;;;;;;10.40;6.28;;;;;;;1.90;78.92;98935.38;5015944;28;20029;-63
2022/01/07 00:36:37;;;;;;;12.20;6.60;;;;;;;1.78;78.95;98936.03;5015201;28;20026;-61
2022/01/07 00:39:03;;;;;;;11.98;6.50;;;;;;;1.83;78.88;98941.75;5010605;28;20164;-63
2022/01/07 00:41:28;;;;;;;10.32;6.38;;;;;;;1.51;78.29;98880.97;5011327;28;20042;-61
2022/01/07 00:43:54;;;;;;;11.45;6.70;;;;;;;1.83;77.89;98934.03;5008563;28;20029;-61
2022/01/07 00:46:20;;;;;;;10.48;6.10;;;;;;;1.80;78.29;98931.63;5017635;28;20090;-62
2022/01/07 00:48:46;;;;;;;11.27;6.30;;;;;;;1.84;77.52;98943.38;5039017;28;20396;-63
2022/01/07 00:51:13;;;;;;;10.00;6.50;;;;;;;1.80;77.87;98936.75;5017276;28;20036;-62
2022/01/07 00:53:38;;;;;;;12.88;6.75;;;;;;;1.44;78.17;98892.50;5014577;28;20033;-62
2022/01/07 00:56:04;;;;;;;10.70;6.50;;;;;;;1.65;77.74;98936.66;4994264;28;20915;-63
2022/01/07 00:58:29;;;;;;;11.18;6.72;;;;;;;1.59;77.94;98939.56;5010962;28;20026;-62
2022/01/07 01:00:55;;;;;;;10.27;6.22;;;;;;;1.54;78.78;98936.41;5014256;28;20064;-62
2022/01/07 01:03:20;;;;;;;11.73;7.03;;;;;;;1.48;78.27;98929.84;5015759;28;20088;-62
2022/01/07 01:05:46;;;;;;;11.25;6.90;;;;;;;1.39;77.90;98932.03;5013726;28;20048;-62
2022/01/07 01:08:12;;;;;;;10.85;7.00;;;;;;;1.34;78.48;98943.38;5025387;28;20638;-63
2022/01/07 01:10:38;;;;;;;11.27;6.85;;;;;;;1.20;77.91;98932.16;5012818;28;20195;-63
2022/01/07 01:13:03;;;;;;;10.45;6.25;;;;;;;0.91;77.88;98888.38;5009564;28;20500;-62
2022/01/07 01:15:29;;;;;;;11.15;7.03;;;;;;;1.23;78.92;98937.16;5014061;28;20108;-63
2022/01/07 01:17:57;;;;;;;10.57;6.40;;;;;;;1.25;78.86;98931.03;5006898;28;20179;-62
2022/01/07 01:20:23;;;;;;;12.30;7.05;;;;;;;1.07;78.81;98906.34;5029062;28;20083;-62
2022/01/07 01:22:48;;;;;;;11.57;7.20;;;;;;;1.26;79.16;98942.09;5015168;28;20025;-62
2022/01/07 01:25:14;;;;;;;11.30;6.97;;;;;;;0.99;78.84;98900.81;5014464;28;20562;-62
2022/01/07 01:27:40;;;;;;;12.07;6.43;;;;;;;0.91;78.96;98901.16;5006715;28;20037;-62
2022/01/07 01:30:08;;;;;;;10.85;6.47;;;;;;;1.27;78.79;98954.00;5009770;28;20598;-62
2022/01/07 01:32:34;;;;;;;10.70;6.70;;;;;;;1.17;79.45;98950.25;5007360;28;20025;-62
2022/01/07 01:35:00;;;;;;;10.98;7.03;;;;;;;1.18;79.22;98960.41;5006961;28;20021;-63
2022/01/07 01:37:25;;;;;;;10.32;6.63;;;;;;;0.99;78.49;98914.44;5043874;28;20117;-62
2022/01/07 01:39:51;;;;;;;9.93;6.38;;;;;;;1.31;79.35;98963.19;5016623;28;20029;-62
2022/01/07 01:42:17;;;;;;;9.15;5.25;;;;;;;0.96;75.34;98904.34;5000196;28;20061;-63
2022/01/07 01:44:43;;;;;;;10.48;6.18;;;;;;;1.33;74.46;98969.06;5016083;28;20048;-61
2022/01/07 01:47:08;;;;;;;9.80;5.90;;;;;;;1.47;73.61;98979.44;5016560;28;20441;-63
2022/01/07 01:49:33;;;;;;;9.57;5.10;;;;;;;1.55;73.08;98979.06;5042332;28;20045;-62
2022/01/07 01:52:00;;;;;;;7.78;4.53;;;;;;;1.61;72.36;98978.75;5044993;28;20069;-62
2022/01/07 01:54:25;;;;;;;9.07;5.22;;;;;;;1.65;72.22;98974.28;5006984;28;20075;-61
2022/01/07 01:56:51;;;;;;;8.13;4.97;;;;;;;1.48;71.74;98964.91;5017799;28;20029;-62
2022/01/07 01:59:28;;;;;;;8.88;4.95;;;;;;;1.53;71.82;98948.41;5001843;28;20083;-61
2022/01/07 02:01:54;;;;;;;8.13;4.80;;;;;;;1.27;71.78;98916.41;5012649;28;20443;-62
2022/01/07 02:04:20;;;;;;;8.32;5.03;;;;;;;1.31;71.68;98912.81;5009330;28;20029;-62
2022/01/07 02:06:45;;;;;;;7.72;4.72;;;;;;;1.39;71.19;98920.09;5008408;28;20029;-62
2022/01/07 02:09:11;;;;;;;7.57;4.43;;;;;;;1.61;71.06;98967.69;5014101;28;20099;-62
2022/01/07 02:11:36;;;;;;;9.38;4.43;;;;;;;1.24;71.17;98903.78;5010718;28;20034;-62
2022/01/07 02:14:02;;;;;;;7.97;4.70;;;;;;;1.67;71.14;98964.78;5005157;28;20120;-63
2022/01/07 02:16:28;;;;;;;8.13;4.90;;;;;;;1.26;71.47;98909.66;5014180;28;20029;-63
2022/01/07 02:18:55;;;;;;;8.55;4.40;;;;;;;1.28;70.98;98901.88;5008019;28;20029;-62
2022/01/07 02:21:21;;;;;;;7.97;4.45;;;;;;;1.58;70.53;98949.88;5016533;28;20104;-62
2022/01/07 02:23:46;;;;;;;8.05;4.38;;;;;;;1.38;70.47;98907.34;5006476;28;20491;-62
2022/01/07 02:26:13;;;;;;;8.15;3.97;;;;;;;1.77;69.74;98953.16;5014194;28;20033;-62
2022/01/07 02:28:40;;;;;;;8.38;4.28;;;;;;;1.65;69.74;98952.03;5019349;28;20040;-62
2022/01/07 02:31:06;;;;;;;8.90;3.70;;;;;;;1.71;68.80;98941.44;4988097;28;20469;-62
2022/01/07 02:33:31;;;;;;;9.25;5.35;;;;;;;1.60;68.06;98938.63;5047770;28;20056;-62
2022/01/07 02:35:56;;;;;;;6.72;3.55;;;;;;;1.44;67.87;98902.75;5021411;28;20045;-62
2022/01/07 02:38:22;;;;;;;7.70;4.10;;;;;;;1.44;67.92;98907.03;5016062;28;20029;-63
2022/01/07 02:40:47;;;;;;;7.78;3.92;;;;;;;1.73;66.35;98943.94;5015056;28;20034;-62
2022/01/07 02:43:13;;;;;;;7.82;3.80;;;;;;;1.52;66.04;98904.91;5016278;28;20065;-62
2022/01/07 02:45:38;;;;;;;7.97;3.70;;;;;;;1.80;66.30;98959.84;4995585;28;20460;-63
2022/01/07 02:48:04;;;;;;;7.35;3.70;;;;;;;1.75;67.07;98943.88;5017408;28;20379;-62
2022/01/07 02:50:36;;;;;;;6.35;3.53;;;;;;;1.75;66.17;98947.25;5016416;28;20040;-62
2022/01/07 02:53:03;;;;;;;6.90;3.75;;;;;;;1.80;66.90;98949.59;5010571;28;20040;-62
2022/01/07 02:55:29;;;;;;;6.78;3.80;;;;;;;1.73;67.56;98941.38;5016417;28;20021;-62
2022/01/07 02:57:54;;;;;;;6.68;3.67;;;;;;;1.61;68.22;98937.75;5018181;28;20037;-61
2022/01/07 03:00:21;;;;;;;6.90;3.92;;;;;;;1.58;68.79;98942.19;5017734;28;20770;-62
2022/01/07 03:02:48;;;;;;;7.55;3.65;;;;;;;1.64;68.91;98952.13;5006991;28;20381;-62
2022/01/07 03:05:14;;;;;;;7.32;3.83;;;;;;;1.66;69.02;98947.72;5031630;28;20034;-61
2022/01/07 03:07:41;;;;;;;6.75;3.60;;;;;;;1.40;69.48;98916.59;5009871;28;20068;-62
2022/01/07 03:10:08;;;;;;;6.78;3.63;;;;;;;1.62;69.17;98954.75;5017378;28;20038;-61
2022/01/07 03:12:33;;;;;;;6.32;3.97;;;;;;;1.60;69.76;98953.19;5011486;28;20041;-62
2022/01/07 03:14:59;;;;;;;6.88;3.40;;;;;;;1.49;69.74;98949.44;5029260;28;20033;-62
2022/01/07 03:17:24;;;;;;;6.50;3.47;;;;;;;1.20;69.28;98904.81;4947388;28;20068;-61
2022/01/07 03:19:50;;;;;;;8.02;4.18;;;;;;;1.22;68.81;98912.44;5016566;28;20039;-62
2022/01/07 03:22:15;;;;;;;6.75;3.38;;;;;;;1.52;68.83;98954.41;5034811;28;20045;-62
2022/01/07 03:24:41;;;;;;;7.63;3.42;;;;;;;1.50;68.72;98948.53;5016813;28;20091;-62
2022/01/07 03:27:07;;;;;;;6.70;3.20;;;;;;;1.45;68.28;98944.56;5019092;28;20121;-60
2022/01/07 03:29:33;;;;;;;7.30;3.60;;;;;;;1.49;67.32;98951.19;5015042;28;20030;-62
2022/01/07 03:31:59;;;;;;;8.55;3.17;;;;;;;1.56;66.20;98944.84;5002198;28;20033;-62
2022/01/07 03:34:24;;;;;;;7.15;3.00;;;;;;;1.55;65.46;98950.84;4990241;28;20033;-62
2022/01/07 03:36:49;;;;;;;5.60;2.70;;;;;;;1.57;65.71;98943.09;5002643;28;20484;-62
2022/01/07 03:39:15;;;;;;;6.40;3.20;;;;;;;1.52;64.62;98938.22;5022768;28;20439;-62
2022/01/07 03:41:40;;;;;;;6.32;2.95;;;;;;;1.21;64.58;98885.16;5013565;28;20065;-63
2022/01/07 03:44:06;;;;;;;6.30;2.83;;;;;;;1.50;64.97;98927.22;5007744;28;20499;-61
2022/01/07 03:46:31;;;;;;;6.38;2.85;;;;;;;1.54;64.57;98926.16;5014432;28;20138;-63
2022/01/07 03:48:56;;;;;;;5.90;2.90;;;;;;;1.49;64.58;98934.06;4960859;28;20589;-62
2022/01/07 03:51:22;;;;;;;5.38;2.42;;;;;;;1.44;63.96;98914.72;5016228;28;20026;-60
2022/01/07 03:53:47;;;;;;;5.60;2.47;;;;;;;1.56;62.98;98937.16;5019164;28;20388;-62
2022/01/07 03:56:17;;;;;;;6.28;2.60;;;;;;;1.53;63.44;98932.16;5020514;28;20072;-62
2022/01/07 03:58:46;;;;;;;5.72;3.03;;;;;;;1.56;64.01;98936.31;5015680;28;20373;-62
2022/01/07 04:01:12;;;;;;;6.03;2.83;;;;;;;1.42;65.00;98942.16;5025707;28;20029;-59
2022/01/07 04:03:37;;;;;;;6.10;2.90;;;;;;;1.47;65.27;98948.69;5006859;28;20299;-62
2022/01/07 04:06:03;;;;;;;6.97;2.67;;;;;;;1.43;65.12;98943.81;5020151;28;20988;-62
2022/01/07 04:08:28;;;;;;;5.70;2.58;;;;;;;1.30;64.93;98936.75;5014138;28;20037;-62
2022/01/07 04:10:54;;;;;;;4.45;2.03;;;;;;;1.49;64.37;98948.63;5045728;28;20728;-62
2022/01/07 04:13:19;;;;;;;5.60;2.58;;;;;;;1.45;64.06;98947.94;5012340;28;20068;-62
2022/01/07 04:15:44;;;;;;;5.60;2.30;;;;;;;1.53;63.98;98950.09;5022397;28;20071;-62
2022/01/07 04:18:10;;;;;;;4.93;2.13;;;;;;;1.50;64.19;98940.03;5013445;28;20495;-62
2022/01/07 04:20:36;;;;;;;5.85;2.58;;;;;;;1.47;64.53;98932.50;5004034;28;20041;-61
2022/01/07 04:23:03;;;;;;;4.93;2.20;;;;;;;1.38;64.28;98933.78;5021925;28;20025;-63
2022/01/07 04:25:29;;;;;;;5.28;2.30;;;;;;;1.53;64.39;98943.28;5015163;28;20145;-61
2022/01/07 04:27:59;;;;;;;5.15;2.13;;;;;;;1.61;63.25;98942.88;5012220;28;20033;-65
2022/01/07 04:30:29;;;;;;;5.20;2.42;;;;;;;1.38;64.27;98907.34;5015498;28;20030;-63
2022/01/07 04:32:55;;;;;;;5.60;2.72;;;;;;;1.50;64.96;98934.91;5048722;28;20438;-62
2022/01/07 04:35:20;;;;;;;6.57;2.78;;;;;;;1.17;66.07;98894.75;4987206;28;21135;-62
2022/01/07 04:37:46;;;;;;;5.45;2.33;;;;;;;1.50;65.84;98937.47;5048926;28;20043;-62
2022/01/07 04:40:13;;;;;;;5.22;2.22;;;;;;;1.14;64.92;98888.03;5020680;28;20190;-61
2022/01/07 04:42:38;;;;;;;6.72;2.42;;;;;;;1.48;64.53;98932.41;5017042;28;20452;-62
2022/01/07 04:45:05;;;;;;;4.93;2.10;;;;;;;1.55;62.65;98935.47;5016129;28;20120;-62
2022/01/07 04:47:31;;;;;;;6.22;2.35;;;;;;;1.51;62.97;98939.13;5003067;28;20043;-62
2022/01/07 04:49:57;;;;;;;4.72;2.13;;;;;;;1.47;63.54;98925.63;5019093;28;20034;-62
2022/01/07 04:52:23;;;;;;;5.55;2.30;;;;;;;1.60;62.92;98940.38;4990056;28;20038;-62
2022/01/07 04:54:48;;;;;;;4.88;2.03;;;;;;;1.58;61.49;98937.88;5013281;28;20033;-62
2022/01/07 04:57:14;;;;;;;4.10;1.63;;;;;;;1.59;61.25;98938.72;5033512;28;20041;-62
2022/01/07 04:59:39;;;;;;;4.40;1.83;;;;;;;1.50;60.87;98924.66;5013655;28;20104;-61
2022/01/07 05:02:04;;;;;;;4.75;1.80;;;;;;;1.64;61.43;98947.00;5018477;28;20072;-62
2022/01/07 05:04:30;;;;;;;4.72;1.90;;;;;;;1.67;61.15;98939.97;5021972;28;20041;-62
2022/01/07 05:06:55;;;;;;;6.90;2.03;;;;;;;1.62;61.67;98943.69;4990365;28;20270;-63
2022/01/07 05:09:21;;;;;;;5.80;2.03;;;;;;;1.54;62.12;98946.66;5012157;28;20033;-62
2022/01/07 05:11:48;;;;;;;5.13;2.10;;;;;;;1.54;62.25;98952.59;5020064;28;20038;-61
2022/01/07 05:14:14;;;;;;;4.28;1.90;;;;;;;1.33;62.38;98917.81;5014124;28;20029;-62
2022/01/07 05:16:40;;;;;;;5.05;1.95;;;;;;;1.37;62.68;98937.28;5016475;28;20076;-62
2022/01/07 05:19:06;;;;;;;4.00;1.80;;;;;;;1.36;62.49;98920.22;5031787;28;20087;-62
2022/01/07 05:21:31;;;;;;;5.72;2.20;;;;;;;1.42;63.57;98945.53;5004918;28;20064;-63
2022/01/07 05:23:57;;;;;;;4.93;2.08;;;;;;;1.42;64.35;98948.09;5001068;28;20769;-62
2022/01/07 05:26:23;;;;;;;5.82;2.20;;;;;;;1.37;64.22;98950.09;5001093;28;20507;-62
2022/01/07 05:28:50;;;;;;;5.10;2.30;;;;;;;1.14;62.91;98913.66;5046819;28;20059;-61
2022/01/07 05:31:19;;;;;;;4.88;1.80;;;;;;;1.42;62.20;98944.72;5004375;28;20029;-61
2022/01/07 05:33:45;;;;;;;5.72;2.17;;;;;;;1.47;62.41;98950.44;5050413;28;20041;-61
2022/01/07 05:36:10;;;;;;;5.20;2.20;;;;;;;1.55;64.56;98948.28;5027792;28;20029;-61
2022/01/07 05:38:36;;;;;;;4.93;2.33;;;;;;;1.58;65.64;98944.75;5000650;28;20040;-62
2022/01/07 05:41:01;;;;;;;5.40;2.45;;;;;;;1.49;67.50;98944.31;5012364;28;20556;-62
2022/01/07 05:43:28;;;;;;;6.47;2.20;;;;;;;1.33;67.15;98944.28;5013733;28;21026;-62
2022/01/07 05:45:53;;;;;;;5.10;2.40;;;;;;;1.27;67.06;98952.28;5050916;28;20082;-62
2022/01/07 05:48:19;;;;;;;5.57;2.53;;;;;;;1.17;67.74;98945.13;5015881;28;20037;-63
2022/01/07 05:50:44;;;;;;;5.38;2.30;;;;;;;1.27;67.27;98948.91;5016259;28;20108;-62
2022/01/07 05:53:10;;;;;;;4.50;2.10;;;;;;;1.21;67.04;98938.97;5011347;28;20087;-62
2022/01/07 05:55:36;;;;;;;5.53;2.30;;;;;;;1.04;66.48;98920.16;4969015;28;20104;-63
2022/01/07 05:58:02;;;;;;;5.35;2.25;;;;;;;1.11;66.01;98947.13;5012951;28;20075;-63
2022/01/07 06:00:27;;;;;;;4.53;2.00;;;;;;;0.93;65.63;98896.78;5015950;28;20037;-62
2022/01/07 06:02:52;;;;;;;4.97;2.13;;;;;;;0.98;66.06;98911.94;5009850;28;20794;-62
2022/01/07 06:05:18;;;;;;;5.00;2.15;;;;;;;1.23;65.04;98950.78;5008586;28;20043;-61
2022/01/07 06:07:43;;;;;;;4.75;1.88;;;;;;;1.22;65.52;98961.09;5016008;28;20034;-61
2022/01/07 06:10:09;;;;;;;5.15;2.45;;;;;;;1.05;66.33;98946.59;4996641;28;20045;-61
2022/01/07 06:12:35;;;;;;;5.72;2.15;;;;;;;1.11;66.84;98966.75;5015881;28;20510;-61
2022/01/07 06:15:00;;;;;;;5.10;2.47;;;;;;;1.18;66.33;98963.00;5013387;28;20562;-60
2022/01/07 06:17:26;;;;;;;5.20;2.20;;;;;;;1.07;66.53;98945.59;5019858;28;20025;-60
2022/01/07 06:19:52;;;;;;;5.78;2.13;;;;;;;1.10;66.77;98960.81;5021118;28;20037;-61
2022/01/07 06:22:17;;;;;;;5.53;2.08;;;;;;;1.12;66.09;98945.38;5018550;28;20043;-61
2022/01/07 06:24:43;;;;;;;4.70;1.92;;;;;;;1.04;66.98;98957.72;5014038;28;20451;-60
2022/01/07 06:27:08;;;;;;;6.65;2.00;;;;;;;0.98;67.27;98960.59;4980371;28;20036;-60
2022/01/07 06:29:34;;;;;;;4.88;2.10;;;;;;;1.03;67.68;98968.88;5017505;28;20035;-61
2022/01/07 06:32:00;;;;;;;5.13;2.10;;;;;;;0.86;66.92;98921.91;5012443;28;20041;-61
2022/01/07 06:34:25;;;;;;;4.72;2.00;;;;;;;0.74;67.08;98909.69;5021656;28;20068;-61
2022/01/07 06:36:51;;;;;;;4.90;2.08;;;;;;;1.08;66.63;98952.38;5013218;28;20069;-61
2022/01/07 06:39:22;;;;;;;5.47;1.92;;;;;;;1.24;66.29;98959.28;5031781;28;20488;-61
2022/01/07 06:41:48;;;;;;;4.60;1.90;;;;;;;1.32;65.61;98957.19;5021547;28;20037;-58
2022/01/07 06:44:14;;;;;;;6.30;2.17;;;;;;;1.27;65.67;98965.09;5026008;28;20393;-60
2022/01/07 06:46:39;;;;;;;5.20;1.80;;;;;;;1.21;65.27;98960.28;5000971;28;20099;-60
2022/01/07 06:49:05;;;;;;;5.03;1.95;;;;;;;1.01;65.63;98920.28;5005032;28;20058;-61
2022/01/07 06:51:31;;;;;;;3.70;1.65;;;;;;;1.38;64.56;98954.28;5019202;28;20055;-60
2022/01/07 06:53:57;;;;;;;4.75;1.98;;;;;;;1.43;64.30;98961.75;5014389;28;20492;-61
2022/01/07 06:56:23;;;;;;;4.25;1.85;;;;;;;1.40;63.42;98967.84;5011404;28;20032;-60
2022/01/07 06:58:49;;;;;;;4.05;1.80;;;;;;;1.25;64.74;98972.03;4997099;28;20021;-61
2022/01/07 07:01:14;;;;;;;6.13;1.95;;;;;;;1.25;64.98;98966.06;5006140;28;20380;-61
2022/01/07 07:03:40;;;;;;;4.22;1.63;;;;;;;1.27;64.85;98966.81;5004550;28;20045;-60
2022/01/07 07:06:06;;;;;;;4.43;1.80;;;;;;;1.27;64.19;98975.34;5009293;28;20654;-60
2022/01/07 07:08:31;;;;;;;4.25;1.67;;;;;;;1.32;64.27;98959.75;5029566;28;20033;-60
2022/01/07 07:10:57;;;;;;;4.18;1.50;;;;;;;1.21;63.85;98950.03;5014106;28;20033;-60
2022/01/07 07:13:22;;;;;;;4.53;1.80;;;;;;;1.27;63.79;98969.38;5022218;28;20025;-61
2022/01/07 07:15:48;;;;;;;4.18;1.67;;;;;;;1.41;64.34;98972.09;5028038;28;20025;-61
2022/01/07 07:18:14;;;;;;;5.22;1.70;;;;;;;1.44;63.86;98973.66;5011818;28;20047;-60
2022/01/07 07:20:40;;;;;;;4.20;1.60;;;;;;;1.22;64.28;98959.34;5046259;28;20076;-60
2022/01/07 07:23:05;;;;;;;5.82;1.70;;;;;;;1.34;64.85;98973.31;5016661;28;20030;-61
2022/01/07 07:25:30;;;;;;;4.65;1.55;;;;;;;1.34;64.81;98971.56;4984327;28;20041;-60
2022/01/07 07:27:56;;;;;;;5.13;1.70;;;;;;;1.37;64.22;98962.06;5022793;28;20064;-60
2022/01/07 07:30:22;;;;;;;4.43;1.70;;;;;;;1.50;64.30;98973.34;5018033;28;20049;-61
2022/01/07 07:32:48;;;;;;;5.95;1.90;;;;;;;1.46;64.33;98971.84;5010410;28;20112;-61
2022/01/07 07:37:46;;;;;;;4.65;1.75;;;;;;;1.56;64.30;98979.91;5024921;28;21640;-61
2022/01/07 07:40:11;;;;;;;5.03;1.60;;;;;;;1.61;64.08;98989.00;4998653;28;20041;-60
2022/01/07 07:42:38;;;;;;;5.38;1.60;;;;;;;1.34;63.34;98938.25;5016461;28;20041;-61
2022/01/07 07:45:04;;;;;;;5.60;1.63;;;;;;;1.61;64.01;98991.56;5046514;28;20273;-60
2022/01/07 07:47:30;;;;;;;4.57;1.73;;;;;;;1.52;64.18;98990.28;5021502;28;20029;-61
2022/01/07 07:49:55;;;;;;;4.30;1.52;;;;;;;1.49;63.91;98987.88;5014543;28;20026;-61
2022/01/07 07:52:21;;;;;;;4.85;1.80;;;;;;;1.59;64.35;98992.53;4998326;28;20059;-60
2022/01/07 07:54:46;;;;;;;5.93;1.83;;;;;;;1.31;64.35;98946.09;4998848;28;20029;-62
2022/01/07 07:57:12;;;;;;;4.22;1.63;;;;;;;1.57;64.08;98986.66;5012548;28;20033;-62
2022/01/07 07:59:37;;;;;;;4.97;1.77;;;;;;;1.46;64.27;98961.59;5023293;28;20392;-60
2022/01/07 08:02:03;;;;;;;4.32;1.65;;;;;;;1.58;63.70;98971.22;5019538;28;20053;-61
2022/01/07 08:04:29;;;;;;;4.75;1.75;;;;;;;1.53;64.30;98975.75;5017242;28;20552;-62
2022/01/07 08:06:55;;;;;;;5.60;2.00;;;;;;;1.56;63.86;98973.03;5015014;28;20034;-61
2022/01/07 08:09:20;;;;;;;3.67;1.50;;;;;;;1.41;64.44;98955.88;5018975;28;20148;-60
2022/01/07 08:11:51;;;;;;;4.97;1.60;;;;;;;1.73;64.23;98990.09;4996308;28;20044;-61
2022/01/07 08:17:02;;;;;;;5.18;1.80;;;;;;;1.68;65.12;98987.78;5017387;28;20041;-60
2022/01/07 08:19:28;;;;;;;4.43;2.05;;;;;;;1.73;64.94;98984.97;5014800;28;20024;-59
2022/01/07 08:21:53;;;;;;;5.20;1.80;;;;;;;1.37;64.72;98927.03;5033491;28;20334;-60
2022/01/07 08:24:18;;;;;;;5.07;1.60;;;;;;;1.81;64.46;98985.41;5029009;28;20021;-60
2022/01/07 08:26:45;;;;;;;5.72;1.77;;;;;;;1.83;64.43;98991.28;5025834;28;20132;-63
2022/01/07 08:29:12;;;;;;;5.65;2.20;;;;;;;1.86;65.05;98983.44;5020359;28;20018;-59
2022/01/07 08:36:51;;;;;;;3.58;1.38;;;;;;;1.85;63.91;98989.47;5012662;28;20830;-60
2022/01/07 08:39:17;;;;;;;4.90;1.77;;;;;;;1.87;64.58;98985.06;5042597;28;20030;-60
2022/01/07 08:41:43;;;;;;;6.13;1.77;;;;;;;1.96;64.25;98988.91;5012373;28;20396;-60
2022/01/07 08:44:09;;;;;;;5.18;1.60;;;;;;;2.02;63.75;98993.69;4960702;28;20061;-57
2022/01/07 08:46:35;;;;;;;4.43;1.60;;;;;;;2.01;63.35;98980.94;5016321;28;21122;-61
2022/01/07 08:49:00;;;;;;;4.43;1.70;;;;;;;2.04;63.38;98981.59;5031295;28;20057;-61
2022/01/07 08:51:26;;;;;;;4.25;1.63;;;;;;;2.16;62.25;98972.44;5015588;28;20131;-61
2022/01/07 08:53:52;;;;;;;6.60;1.80;;;;;;;2.08;61.86;98931.81;5013546;28;20033;-60
2022/01/07 08:56:18;;;;;;;4.32;1.67;;;;;;;2.02;62.27;98909.03;5012780;28;20052;-61
2022/01/07 08:58:43;;;;;;;5.20;1.63;;;;;;;2.48;61.50;98975.84;4957236;28;20444;-60
2022/01/07 09:01:09;;;;;;;4.40;1.58;;;;;;;2.62;61.76;98984.50;5029826;28;20378;-60
2022/01/07 09:03:34;;;;;;;4.43;1.55;;;;;;;2.56;61.31;98980.53;5020493;28;20686;-61
2022/01/07 09:06:00;;;;;;;4.82;1.85;;;;;;;2.59;62.62;98982.09;5009769;28;20116;-60
2022/01/07 09:08:25;;;;;;;5.80;2.05;;;;;;;2.55;63.59;98978.03;5010556;28;20766;-61
2022/01/07 09:10:51;;;;;;;4.00;1.67;;;;;;;2.74;62.82;98985.53;4997089;28;20439;-60
2022/01/07 09:13:17;;;;;;;4.65;2.00;;;;;;;2.72;62.70;98984.81;5021714;28;20038;-60
2022/01/07 09:15:42;;;;;;;4.63;1.73;;;;;;;2.83;61.76;98991.00;4959930;28;20037;-60
2022/01/07 09:18:11;;;;;;;5.97;1.90;;;;;;;2.52;61.28;98937.97;5040728;28;20026;-60
2022/01/07 09:20:38;;;;;;;4.25;1.80;;;;;;;2.84;60.77;98971.28;5013096;28;20105;-61
2022/01/07 09:23:05;;;;;;;4.43;1.77;;;;;;;2.79;61.42;98976.69;5007107;28;20018;-61
2022/01/07 09:25:30;;;;;;;5.40;2.05;;;;;;;2.79;62.00;98984.41;5006217;28;20634;-60
2022/01/07 09:27:55;;;;;;;4.80;2.20;;;;;;;2.91;62.65;98976.91;5006737;28;20068;-60
2022/01/07 09:30:21;;;;;;;5.57;2.22;;;;;;;2.95;62.65;98979.19;4982711;28;20515;-61
2022/01/07 09:32:47;;;;;;;6.47;2.50;;;;;;;2.86;61.65;98972.00;5008688;28;20036;-61
2022/01/07 09:35:14;;;;;;;4.45;1.85;;;;;;;2.86;61.05;98970.25;5000270;28;20029;-61
2022/01/07 09:37:39;;;;;;;6.15;2.17;;;;;;;2.72;60.46;98975.38;5014001;28;20056;-60
2022/01/07 09:40:05;;;;;;;6.75;2.03;;;;;;;2.82;60.15;98975.69;5042316;28;20834;-60
2022/01/07 09:42:31;;;;;;;4.80;1.88;;;;;;;2.55;60.55;98971.16;5013146;28;20199;-60
2022/01/07 09:44:57;;;;;;;4.78;1.80;;;;;;;2.71;61.20;98975.47;5009422;28;20044;-60
2022/01/07 09:47:22;;;;;;;4.30;1.77;;;;;;;2.83;60.53;98967.88;5008762;28;20083;-61
2022/01/07 09:49:48;;;;;;;4.45;1.80;;;;;;;2.80;61.08;98956.97;5024185;28;20025;-60
2022/01/07 09:52:14;;;;;;;4.25;1.60;;;;;;;2.66;60.75;98916.66;4946855;28;20034;-61
2022/01/07 09:54:40;;;;;;;4.45;1.77;;;;;;;2.99;60.34;98956.72;4998018;28;20107;-60
2022/01/07 09:57:07;;;;;;;4.15;1.65;;;;;;;2.94;60.48;98957.00;5008877;28;20033;-60
2022/01/07 09:59:36;;;;;;;5.03;1.80;;;;;;;2.95;61.11;98947.56;5010491;28;20030;-59
2022/01/07 10:02:09;;;;;;;6.72;2.10;;;;;;;2.71;61.15;98909.50;5010777;28;20040;-60
2022/01/07 10:04:37;;;;;;;5.53;2.75;;;;;;;3.16;60.63;98945.47;4997062;28;20052;-61
2022/01/07 10:07:10;;;;;;;5.60;2.67;;;;;;;3.17;60.84;98947.13;4975125;28;20034;-61
2022/01/07 10:09:40;;;;;;;4.85;2.15;;;;;;;3.10;60.07;98928.66;5002913;28;20097;-61
2022/01/07 10:12:07;;;;;;;5.78;2.03;;;;;;;2.95;57.92;98893.59;5047729;28;20632;-60
2022/01/07 10:14:33;;;;;;;4.60;1.85;;;;;;;2.89;58.57;98887.91;5014589;28;20184;-60
2022/01/07 10:17:00;;;;;;;5.03;2.20;;;;;;;3.22;59.94;98933.09;4996433;28;20136;-61
2022/01/07 10:19:36;;;;;;;4.97;1.70;;;;;;;2.84;59.60;98882.19;5018691;28;20052;-60
2022/01/07 10:22:10;;;;;;;4.32;1.63;;;;;;;3.17;59.06;98942.00;5013274;28;20034;-63
2022/01/07 10:24:59;;;;;;;4.15;1.60;;;;;;;3.13;59.27;98936.22;5045592;28;20037;-62
2022/01/07 10:27:35;;;;;;;4.60;1.85;;;;;;;2.84;60.11;98886.53;5043910;28;20651;-62
2022/01/07 10:30:00;;;;;;;5.68;2.05;;;;;;;3.07;59.88;98926.28;5009931;28;20405;-62
2022/01/07 10:32:29;;;;;;;5.10;2.28;;;;;;;3.04;59.92;98929.84;5010305;28;20048;-62
2022/01/07 10:35:20;;;;;;;4.13;1.70;;;;;;;3.01;60.00;98919.78;5026503;28;20080;-62
2022/01/07 10:37:59;;;;;;;4.28;1.60;;;;;;;2.82;60.34;98871.19;5006615;28;20383;-62
2022/01/07 10:40:30;;;;;;;5.25;1.60;;;;;;;3.18;60.26;98892.25;5008185;28;20484;-61
2022/01/07 10:43:16;;;;;;;4.30;1.70;;;;;;;3.09;59.42;98914.19;5005844;28;20041;-61
2022/01/07 10:45:45;;;;;;;4.70;1.70;;;;;;;3.19;60.75;98901.59;5008881;28;20046;-62
2022/01/07 10:48:11;;;;;;;4.40;1.70;;;;;;;3.14;60.47;98894.19;5020757;28;20037;-61
2022/01/07 10:50:59;;;;;;;5.38;1.70;;;;;;;3.20;59.73;98893.81;5008005;28;20072;-63
2022/01/07 10:53:29;;;;;;;4.35;1.73;;;;;;;3.24;59.02;98876.47;5006322;28;20060;-63
2022/01/07 10:56:00;;;;;;;7.53;1.95;;;;;;;3.30;58.65;98878.66;5033624;28;20045;-61
2022/01/07 10:58:26;;;;;;;4.15;1.55;;;;;;;3.40;59.54;98878.94;5013543;28;20033;-63
2022/01/07 11:00:52;;;;;;;4.13;1.60;;;;;;;3.27;59.10;98869.41;5014229;28;20637;-63
2022/01/07 11:03:17;;;;;;;4.00;1.50;;;;;;;3.41;59.02;98863.44;5016266;28;20026;-62
2022/01/07 11:05:43;;;;;;;4.47;1.77;;;;;;;3.46;56.67;98852.84;5017284;28;20052;-61
2022/01/07 11:08:09;;;;;;;4.20;1.70;;;;;;;3.40;58.01;98859.19;5032052;28;20042;-62
2022/01/07 11:10:36;;;;;;;3.90;1.70;;;;;;;3.49;58.21;98834.69;5006822;28;20559;-62
2022/01/07 11:13:02;;;;;;;4.20;1.80;;;;;;;3.38;57.79;98829.38;5028852;28;20025;-62
2022/01/07 11:15:28;;;;;;;7.78;1.95;;;;;;;3.40;59.26;98830.09;5027287;28;20021;-62
2022/01/07 11:17:53;;;;;;;4.75;1.85;;;;;;;3.38;58.73;98831.94;5015388;28;20030;-62
2022/01/07 11:20:24;;;;;;;4.57;2.05;;;;;;;3.28;60.29;98793.13;5010116;28;20515;-62
2022/01/07 11:22:51;;;;;;;4.85;1.77;;;;;;;3.43;58.96;98804.19;4993406;28;20161;-62
2022/01/07 11:25:17;;;;;;;4.63;1.85;;;;;;;3.68;59.39;98808.63;5000354;28;20029;-62
2022/01/07 11:27:51;;;;;;;3.72;1.55;;;;;;;3.61;59.12;98800.50;5023174;28;20532;-62
2022/01/07 11:30:19;;;;;;;4.05;1.70;;;;;;;3.60;58.96;98801.41;5010219;28;20481;-63
2022/01/07 11:32:49;;;;;;;4.90;2.15;;;;;;;3.53;58.94;98773.63;5018314;28;20018;-62
2022/01/07 11:35:19;;;;;;;5.25;1.90;;;;;;;3.79;59.20;98785.63;5011085;28;20076;-61
2022/01/07 11:37:46;;;;;;;4.43;2.05;;;;;;;3.84;59.48;98782.78;5043926;28;20049;-62
2022/01/07 11:40:31;;;;;;;5.22;2.30;;;;;;;3.87;59.62;98772.31;5020963;28;20156;-62
2022/01/07 11:42:59;;;;;;;5.88;2.50;;;;;;;3.94;59.19;98777.88;4998943;28;20033;-63
2022/01/07 11:45:31;;;;;;;5.78;2.80;;;;;;;3.96;59.20;98776.00;5006730;28;20138;-61
2022/01/07 11:48:20;;;;;;;6.55;2.28;;;;;;;3.85;59.02;98751.81;5043370;28;20064;-61